createdAt,value
2018-04-12T00:00:58.388Z,76.84
2018-04-12T00:01:59.064Z,76.56
2018-04-12T00:02:59.742Z,76.46
2018-04-12T00:04:00.412Z,76.56
2018-04-12T00:05:01.086Z,76.65
2018-04-12T00:06:01.765Z,76.65
2018-04-12T00:07:02.433Z,77.04
2018-04-12T00:08:03.105Z,77.42
2018-04-12T00:09:03.777Z,76.65
2018-04-12T00:10:04.448Z,76.94
2018-04-12T00:11:05.127Z,77.00
2018-04-12T00:12:05.805Z,77.13
2018-04-12T00:13:06.480Z,76.94
2018-04-12T00:14:07.153Z,77.13
2018-04-12T00:15:07.824Z,76.75
2018-04-12T00:16:08.492Z,76.94
2018-04-12T00:17:09.173Z,76.71
2018-04-12T00:18:09.846Z,76.81
2018-04-12T00:19:10.525Z,77.04
2018-04-12T00:20:11.209Z,77.42
2018-04-12T00:21:11.884Z,76.90
2018-04-12T00:22:12.556Z,77.51
2018-04-12T00:23:13.230Z,77.33
2018-04-12T00:24:13.903Z,77.09
2018-04-12T00:25:14.573Z,77.00
2018-04-12T00:26:15.244Z,77.00
2018-04-12T00:27:15.917Z,77.00
2018-04-12T00:28:16.587Z,76.84
2018-04-12T00:29:17.266Z,76.56
2018-04-12T00:30:17.938Z,76.56
2018-04-12T00:31:18.626Z,76.81
2018-04-12T00:32:19.294Z,76.56
2018-04-12T00:33:19.975Z,76.75
2018-04-12T00:34:20.645Z,76.08
2018-04-12T00:35:21.319Z,76.46
2018-04-12T00:36:21.993Z,76.75
2018-04-12T00:37:22.668Z,76.75
2018-04-12T00:38:23.344Z,76.37
2018-04-12T00:39:24.015Z,76.75
2018-04-12T00:40:24.685Z,76.08
2018-04-12T00:41:25.358Z,76.18
2018-04-12T00:42:26.032Z,76.27
2018-04-12T00:43:26.713Z,76.27
2018-04-12T00:44:27.383Z,76.18
2018-04-12T00:45:28.064Z,76.65
2018-04-12T00:46:28.737Z,76.75
2018-04-12T00:47:29.410Z,76.75
2018-04-12T00:48:30.091Z,76.27
2018-04-12T00:49:30.767Z,76.18
2018-04-12T00:50:31.440Z,76.37
2018-04-12T00:51:32.113Z,76.84
2018-04-12T00:52:32.781Z,76.23
2018-04-12T00:53:33.454Z,76.65
2018-04-12T00:54:34.127Z,76.81
2018-04-12T00:55:34.805Z,76.75
2018-04-12T00:56:35.484Z,77.13
2018-04-12T00:57:36.158Z,77.23
2018-04-12T00:58:36.839Z,76.65
2018-04-12T00:59:37.511Z,76.84
2018-04-12T01:00:38.190Z,76.65
2018-04-12T01:01:38.863Z,76.81
2018-04-12T01:02:39.538Z,77.00
2018-04-12T01:03:40.207Z,77.57
2018-04-12T01:04:40.878Z,77.57
2018-04-12T01:05:41.552Z,77.86
2018-04-12T01:06:42.226Z,78.14
2018-04-12T01:07:42.906Z,78.43
2018-04-12T01:08:43.579Z,78.34
2018-04-12T01:09:44.254Z,78.05
2018-04-12T01:10:44.927Z,78.14
2018-04-12T01:11:45.599Z,78.34
2018-04-12T01:12:46.272Z,78.14
2018-04-12T01:13:46.950Z,78.38
2018-04-12T01:14:47.618Z,78.34
2018-04-12T01:15:48.297Z,78.53
2018-04-12T01:16:48.969Z,77.86
2018-04-12T01:17:49.639Z,77.67
2018-04-12T01:18:50.313Z,77.57
2018-04-12T01:19:50.994Z,77.76
2018-04-12T01:20:51.664Z,77.28
2018-04-12T01:21:52.337Z,76.90
2018-04-12T01:22:53.014Z,76.71
2018-04-12T01:23:53.687Z,77.28
2018-04-12T01:24:54.359Z,77.09
2018-04-12T01:25:55.039Z,76.52
2018-04-12T01:26:55.710Z,76.52
2018-04-12T01:27:56.384Z,76.62
2018-04-12T01:28:57.056Z,76.33
2018-04-12T01:29:57.727Z,76.46
2018-04-12T01:30:58.395Z,76.33
2018-04-12T01:31:59.077Z,76.14
2018-04-12T01:32:59.752Z,76.52
2018-04-12T01:34:00.422Z,77.00
2018-04-12T01:35:01.095Z,77.00
2018-04-12T01:36:01.761Z,77.00
2018-04-12T01:37:02.443Z,76.81
2018-04-12T01:38:03.112Z,76.71
2018-04-12T01:39:03.785Z,77.19
2018-04-12T01:40:04.461Z,76.71
2018-04-12T01:41:05.134Z,77.38
2018-04-12T01:42:05.818Z,77.19
2018-04-12T01:43:06.487Z,77.38
2018-04-12T01:44:07.157Z,77.38
2018-04-12T01:45:07.832Z,77.38
2018-04-12T01:46:08.503Z,77.09
2018-04-12T01:47:09.173Z,77.48
2018-04-12T01:48:09.853Z,77.19
2018-04-12T01:49:10.525Z,77.86
2018-04-12T01:50:11.203Z,77.67
2018-04-12T01:51:11.876Z,77.67
2018-04-12T01:52:12.547Z,77.38
2018-04-12T01:53:13.236Z,77.67
2018-04-12T01:54:13.888Z,77.57
2018-04-12T01:55:14.564Z,77.76
2018-04-12T01:56:15.235Z,78.05
2018-04-12T01:57:15.908Z,78.34
2018-04-12T01:58:16.579Z,78.24
2018-04-12T01:59:17.255Z,78.68
2018-04-12T02:00:17.928Z,78.49
2018-04-12T02:01:18.603Z,78.49
2018-04-12T02:02:19.278Z,79.16
2018-04-12T02:03:19.952Z,78.97
2018-04-12T02:04:20.626Z,78.87
2018-04-12T02:05:21.297Z,79.16
2018-04-12T02:06:21.973Z,79.44
2018-04-12T02:07:22.646Z,79.25
2018-04-12T02:08:23.317Z,80.02
2018-04-12T02:09:23.989Z,79.44
2018-04-12T02:10:24.750Z,79.64
2018-04-12T02:11:25.423Z,79.83
2018-04-12T02:12:26.098Z,79.73
2018-04-12T02:13:26.773Z,80.02
2018-04-12T02:14:27.446Z,80.21
2018-04-12T02:15:28.119Z,80.11
2018-04-12T02:16:28.792Z,80.59
2018-04-12T02:17:29.468Z,79.64
2018-04-12T02:18:30.136Z,80.21
2018-04-12T02:19:30.809Z,80.59
2018-04-12T02:20:31.476Z,80.50
2018-04-12T02:21:32.150Z,80.50
2018-04-12T02:22:32.832Z,80.50
2018-04-12T02:23:33.506Z,80.69
2018-04-12T02:24:34.179Z,80.40
2018-04-12T02:25:34.852Z,80.79
2018-04-12T02:26:35.524Z,80.59
2018-04-12T02:27:36.197Z,81.16
2018-04-12T02:28:36.877Z,80.40
2018-04-12T02:29:37.553Z,80.59
2018-04-12T02:30:38.229Z,80.59
2018-04-12T02:31:38.899Z,80.40
2018-04-12T02:32:39.570Z,80.79
2018-04-12T02:33:40.244Z,80.59
2018-04-12T02:34:40.914Z,80.30
2018-04-12T02:35:41.589Z,80.59
2018-04-12T02:36:42.262Z,80.88
2018-04-12T02:37:42.936Z,80.59
2018-04-12T02:38:43.608Z,80.88
2018-04-12T02:39:44.279Z,80.79
2018-04-12T02:40:44.956Z,80.88
2018-04-12T02:41:45.645Z,80.79
2018-04-12T02:42:46.322Z,80.88
2018-04-12T02:43:46.999Z,80.79
2018-04-12T02:44:47.667Z,80.79
2018-04-12T02:45:48.349Z,80.40
2018-04-12T02:46:49.023Z,79.93
2018-04-12T02:47:49.695Z,79.93
2018-04-12T02:48:50.368Z,79.64
2018-04-12T02:49:51.047Z,80.11
2018-04-12T02:50:51.716Z,80.11
2018-04-12T02:51:52.392Z,79.93
2018-04-12T02:52:53.062Z,79.93
2018-04-12T02:53:53.733Z,79.83
2018-04-12T02:54:54.406Z,79.64
2018-04-12T02:55:55.077Z,79.54
2018-04-12T02:56:55.752Z,80.02
2018-04-12T02:57:56.427Z,79.93
2018-04-12T02:58:57.103Z,79.83
2018-04-12T02:59:57.778Z,79.93
2018-04-12T03:00:58.449Z,80.02
2018-04-12T03:01:59.128Z,79.83
2018-04-12T03:02:59.802Z,80.30
2018-04-12T03:04:00.475Z,79.79
2018-04-12T03:05:01.151Z,80.11
2018-04-12T03:06:01.824Z,80.40
2018-04-12T03:07:02.501Z,80.55
2018-04-12T03:08:03.172Z,80.74
2018-04-12T03:09:03.845Z,80.74
2018-04-12T03:10:04.517Z,80.65
2018-04-12T03:11:05.195Z,80.84
2018-04-12T03:12:05.879Z,81.03
2018-04-12T03:13:06.550Z,81.13
2018-04-12T03:14:07.224Z,81.41
2018-04-12T03:15:07.893Z,81.45
2018-04-12T03:16:08.567Z,81.41
2018-04-12T03:17:09.241Z,81.22
2018-04-12T03:18:09.911Z,81.51
2018-04-12T03:19:10.583Z,81.41
2018-04-12T03:20:11.254Z,81.41
2018-04-12T03:21:11.921Z,81.41
2018-04-12T03:22:12.604Z,80.84
2018-04-12T03:23:13.271Z,81.51
2018-04-12T03:24:13.955Z,81.22
2018-04-12T03:25:14.631Z,81.41
2018-04-12T03:26:15.304Z,80.74
2018-04-12T03:27:15.983Z,80.46
2018-04-12T03:28:16.650Z,80.74
2018-04-12T03:29:17.326Z,80.84
2018-04-12T03:30:18.002Z,80.84
2018-04-12T03:31:18.675Z,80.74
2018-04-12T03:32:19.355Z,80.65
2018-04-12T03:33:20.026Z,80.74
2018-04-12T03:34:20.708Z,80.65
2018-04-12T03:35:21.384Z,81.32
2018-04-12T03:36:22.054Z,81.22
2018-04-12T03:37:22.725Z,81.41
2018-04-12T03:38:23.396Z,81.51
2018-04-12T03:39:24.069Z,80.84
2018-04-12T03:40:24.740Z,80.65
2018-04-12T03:41:25.419Z,80.65
2018-04-12T03:42:26.095Z,81.03
2018-04-12T03:43:26.766Z,81.22
2018-04-12T03:44:27.440Z,81.51
2018-04-12T03:45:28.122Z,81.89
2018-04-12T03:46:28.793Z,81.79
2018-04-12T03:47:29.462Z,81.32
2018-04-12T03:48:30.137Z,81.13
2018-04-12T03:49:30.810Z,81.79
2018-04-12T03:50:31.523Z,81.70
2018-04-12T03:51:32.160Z,81.51
2018-04-12T03:52:32.828Z,81.41
2018-04-12T03:53:33.499Z,81.22
2018-04-12T03:54:34.173Z,81.13
2018-04-12T03:55:34.855Z,81.13
2018-04-12T03:56:35.520Z,81.32
2018-04-12T03:57:36.193Z,81.22
2018-04-12T03:58:36.864Z,81.13
2018-04-12T03:59:37.537Z,81.89
2018-04-12T04:00:38.210Z,81.70
2018-04-12T04:01:38.887Z,81.70
2018-04-12T04:02:39.552Z,81.60
2018-04-12T04:03:40.225Z,81.51
2018-04-12T04:04:40.896Z,81.99
2018-04-12T04:05:41.569Z,82.18
2018-04-12T04:06:42.241Z,82.08
2018-04-12T04:07:42.913Z,81.99
2018-04-12T04:08:43.585Z,81.89
2018-04-12T04:09:44.256Z,82.08
2018-04-12T04:10:44.930Z,82.46
2018-04-12T04:11:45.603Z,82.75
2018-04-12T04:12:46.274Z,82.65
2018-04-12T04:13:46.947Z,82.75
2018-04-12T04:14:47.616Z,82.56
2018-04-12T04:15:48.292Z,82.56
2018-04-12T04:16:48.964Z,82.46
2018-04-12T04:17:49.636Z,82.46
2018-04-12T04:18:50.304Z,82.56
2018-04-12T04:19:50.980Z,82.75
2018-04-12T04:20:51.688Z,82.56
2018-04-12T04:21:52.320Z,82.56
2018-04-12T04:22:52.996Z,82.46
2018-04-12T04:23:53.670Z,82.46
2018-04-12T04:24:54.345Z,82.37
2018-04-12T04:25:55.016Z,82.65
2018-04-12T04:26:55.693Z,82.37
2018-04-12T04:27:56.370Z,82.56
2018-04-12T04:28:57.039Z,82.46
2018-04-12T04:29:57.717Z,82.75
2018-04-12T04:30:58.392Z,82.56
2018-04-12T04:31:59.064Z,82.94
2018-04-12T04:32:59.736Z,83.42
2018-04-12T04:34:00.409Z,83.23
2018-04-12T04:35:01.080Z,82.94
2018-04-12T04:36:01.755Z,83.23
2018-04-12T04:37:02.430Z,83.23
2018-04-12T04:38:03.100Z,82.84
2018-04-12T04:39:03.778Z,83.23
2018-04-12T04:40:04.452Z,83.13
2018-04-12T04:41:05.123Z,83.13
2018-04-12T04:42:05.793Z,83.23
2018-04-12T04:43:06.463Z,83.23
2018-04-12T04:44:07.135Z,83.13
2018-04-12T04:45:07.804Z,83.70
2018-04-12T04:46:08.476Z,84.19
2018-04-12T04:47:09.152Z,83.90
2018-04-12T04:48:09.888Z,84.09
2018-04-12T04:49:10.499Z,83.51
2018-04-12T04:50:11.175Z,83.61
2018-04-12T04:51:11.849Z,83.90
2018-04-12T04:52:12.524Z,83.90
2018-04-12T04:53:13.199Z,83.90
2018-04-12T04:54:13.875Z,83.70
2018-04-12T04:55:14.549Z,83.70
2018-04-12T04:56:15.222Z,83.61
2018-04-12T04:57:15.901Z,83.80
2018-04-12T04:58:16.572Z,83.90
2018-04-12T04:59:17.255Z,83.99
2018-04-12T05:00:17.928Z,84.66
2018-04-12T05:01:18.603Z,84.66
2018-04-12T05:02:19.281Z,84.37
2018-04-12T05:03:19.958Z,84.56
2018-04-12T05:04:20.635Z,85.33
2018-04-12T05:05:21.305Z,84.56
2018-04-12T05:06:21.980Z,84.56
2018-04-12T05:07:22.654Z,85.33
2018-04-12T05:08:23.330Z,85.19
2018-04-12T05:09:24.006Z,85.29
2018-04-12T05:10:24.685Z,85.67
2018-04-12T05:11:25.367Z,85.86
2018-04-12T05:12:26.040Z,85.96
2018-04-12T05:13:26.724Z,85.58
2018-04-12T05:14:27.408Z,85.67
2018-04-12T05:15:28.147Z,85.58
2018-04-12T05:16:28.758Z,85.77
2018-04-12T05:17:29.430Z,86.15
2018-04-12T05:18:30.104Z,86.24
2018-04-12T05:19:30.781Z,86.43
2018-04-12T05:20:31.457Z,86.34
2018-04-12T05:21:32.129Z,86.15
2018-04-12T05:22:32.809Z,86.24
2018-04-12T05:23:33.485Z,86.43
2018-04-12T05:24:34.162Z,86.63
2018-04-12T05:25:34.837Z,86.72
2018-04-12T05:26:35.560Z,86.24
2018-04-12T05:27:36.186Z,86.24
2018-04-12T05:28:36.865Z,86.63
2018-04-12T05:29:37.539Z,86.24
2018-04-12T05:30:38.211Z,86.29
2018-04-12T05:31:38.885Z,86.24
2018-04-12T05:32:39.566Z,86.38
2018-04-12T05:33:40.240Z,86.38
2018-04-12T05:34:40.915Z,86.57
2018-04-12T05:35:41.592Z,86.24
2018-04-12T05:36:42.268Z,86.24
2018-04-12T05:37:42.944Z,86.57
2018-04-12T05:38:43.621Z,85.90
2018-04-12T05:39:44.294Z,85.90
2018-04-12T05:40:44.973Z,86.00
2018-04-12T05:41:45.649Z,86.57
2018-04-12T05:42:46.321Z,86.00
2018-04-12T05:43:46.999Z,86.47
2018-04-12T05:44:47.683Z,86.57
2018-04-12T05:45:48.363Z,86.57
2018-04-12T05:46:49.040Z,86.47
2018-04-12T05:47:49.714Z,86.76
2018-04-12T05:48:50.393Z,86.29
2018-04-12T05:49:51.066Z,86.67
2018-04-12T05:50:51.742Z,86.47
2018-04-12T05:51:52.416Z,86.29
2018-04-12T05:52:53.137Z,86.47
2018-04-12T05:53:53.783Z,86.47
2018-04-12T05:54:54.460Z,86.57
2018-04-12T05:55:55.144Z,86.57
2018-04-12T05:56:55.820Z,86.76
2018-04-12T05:57:56.494Z,86.57
2018-04-12T05:58:57.170Z,86.29
2018-04-12T05:59:57.850Z,86.47
2018-04-12T06:00:58.526Z,86.19
2018-04-12T06:01:59.208Z,86.10
2018-04-12T06:02:59.884Z,86.47
2018-04-12T06:04:00.587Z,86.47
2018-04-12T06:05:01.237Z,86.19
2018-04-12T06:06:01.949Z,86.29
2018-04-12T06:07:02.603Z,86.47
2018-04-12T06:08:03.276Z,86.38
2018-04-12T06:09:03.950Z,86.57
2018-04-12T06:10:04.640Z,86.47
2018-04-12T06:11:05.311Z,86.47
2018-04-12T06:12:05.986Z,86.47
2018-04-12T06:13:06.658Z,86.43
2018-04-12T06:14:07.329Z,86.43
2018-04-12T06:15:08.007Z,86.29
2018-04-12T06:16:08.682Z,86.00
2018-04-12T06:17:09.360Z,85.33
2018-04-12T06:18:10.031Z,84.81
2018-04-12T06:19:10.707Z,85.42
2018-04-12T06:20:11.380Z,85.62
2018-04-12T06:21:12.062Z,85.33
2018-04-12T06:22:12.742Z,86.00
2018-04-12T06:23:13.415Z,85.14
2018-04-12T06:24:14.089Z,85.33
2018-04-12T06:25:14.768Z,85.24
2018-04-12T06:26:15.446Z,85.24
2018-04-12T06:27:16.120Z,84.37
2018-04-12T06:28:16.795Z,84.09
2018-04-12T06:29:17.470Z,83.80
2018-04-12T06:30:18.152Z,84.09
2018-04-12T06:31:18.830Z,83.80
2018-04-12T06:32:19.508Z,83.23
2018-04-12T06:33:20.182Z,83.23
2018-04-12T06:34:20.860Z,82.84
2018-04-12T06:35:21.537Z,82.98
2018-04-12T06:36:22.227Z,82.70
2018-04-12T06:37:22.901Z,81.65
2018-04-12T06:38:23.574Z,81.55
2018-04-12T06:39:24.251Z,81.45
2018-04-12T06:40:24.930Z,81.55
2018-04-12T06:41:25.615Z,81.26
2018-04-12T06:42:26.284Z,80.59
2018-04-12T06:43:26.963Z,80.79
2018-04-12T06:44:27.638Z,80.59
2018-04-12T06:45:28.320Z,80.50
2018-04-12T06:46:28.994Z,80.69
2018-04-12T06:47:29.670Z,80.79
2018-04-12T06:48:30.348Z,80.50
2018-04-12T06:49:31.037Z,79.93
2018-04-12T06:50:31.709Z,79.83
2018-04-12T06:51:32.388Z,80.11
2018-04-12T06:52:33.066Z,79.68
2018-04-12T06:53:33.747Z,79.35
2018-04-12T06:54:34.428Z,79.39
2018-04-12T06:55:35.107Z,79.68
2018-04-12T06:56:35.791Z,79.68
2018-04-12T06:57:36.468Z,79.39
2018-04-12T06:58:37.147Z,79.29
2018-04-12T06:59:37.828Z,79.20
2018-04-12T07:00:38.503Z,79.00
2018-04-12T07:01:39.192Z,78.53
2018-04-12T07:02:39.861Z,78.63
2018-04-12T07:03:40.541Z,78.72
2018-04-12T07:04:41.221Z,79.29
2018-04-12T07:05:41.896Z,78.91
2018-04-12T07:06:42.575Z,78.91
2018-04-12T07:07:43.253Z,78.72
2018-04-12T07:08:43.929Z,78.63
2018-04-12T07:09:44.608Z,78.63
2018-04-12T07:10:45.287Z,78.63
2018-04-12T07:11:45.966Z,78.95
2018-04-12T07:12:46.640Z,79.39
2018-04-12T07:13:47.317Z,78.57
2018-04-12T07:14:48.005Z,78.76
2018-04-12T07:15:48.682Z,78.57
2018-04-12T07:16:49.365Z,78.38
2018-04-12T07:17:50.047Z,78.57
2018-04-12T07:18:50.722Z,78.09
2018-04-12T07:19:51.401Z,77.04
2018-04-12T07:20:52.078Z,77.70
2018-04-12T07:21:52.757Z,77.70
2018-04-12T07:22:53.447Z,77.70
2018-04-12T07:23:54.126Z,77.70
2018-04-12T07:24:54.802Z,77.70
2018-04-12T07:25:55.480Z,76.75
2018-04-12T07:26:56.157Z,77.23
2018-04-12T07:27:56.834Z,77.51
2018-04-12T07:28:57.511Z,77.23
2018-04-12T07:29:58.189Z,77.99
2018-04-12T07:30:58.867Z,78.09
2018-04-12T07:31:59.545Z,78.19
2018-04-12T07:33:00.219Z,78.66
2018-04-12T07:34:00.897Z,78.38
2018-04-12T07:35:01.590Z,78.47
2018-04-12T07:36:02.255Z,78.61
2018-04-12T07:37:02.933Z,78.03
2018-04-12T07:38:03.609Z,78.22
2018-04-12T07:39:04.285Z,78.70
2018-04-12T07:40:04.962Z,77.94
2018-04-12T07:41:05.639Z,76.79
2018-04-12T07:42:06.325Z,76.79
2018-04-12T07:43:07.007Z,76.89
2018-04-12T07:44:07.687Z,76.21
2018-04-12T07:45:08.367Z,76.54
2018-04-12T07:46:09.042Z,76.54
2018-04-12T07:47:09.735Z,76.25
2018-04-12T07:48:10.420Z,76.25
2018-04-12T07:49:11.103Z,75.68
2018-04-12T07:50:11.780Z,75.73
2018-04-12T07:51:12.458Z,75.10
2018-04-12T07:52:13.139Z,75.10
2018-04-12T07:53:13.820Z,75.48
2018-04-12T07:54:14.494Z,75.58
2018-04-12T07:55:15.175Z,75.10
2018-04-12T07:56:15.852Z,74.72
2018-04-12T07:57:16.530Z,74.43
2018-04-12T07:58:17.217Z,73.80
2018-04-12T07:59:17.894Z,74.27
2018-04-12T08:00:18.571Z,74.47
2018-04-12T08:01:19.249Z,74.27
2018-04-12T08:02:19.936Z,73.80
2018-04-12T08:03:20.617Z,73.32
2018-04-12T08:04:21.298Z,73.61
2018-04-12T08:05:21.978Z,72.94
2018-04-12T08:06:22.664Z,73.13
2018-04-12T08:07:23.351Z,72.78
2018-04-12T08:08:24.027Z,72.68
2018-04-12T08:09:24.703Z,72.68
2018-04-12T08:10:25.386Z,72.20
2018-04-12T08:11:26.065Z,71.15
2018-04-12T08:12:26.747Z,71.05
2018-04-12T08:13:27.423Z,71.25
2018-04-12T08:14:28.101Z,71.92
2018-04-12T08:15:28.777Z,71.72
2018-04-12T08:16:29.458Z,71.15
2018-04-12T08:17:30.139Z,71.15
2018-04-12T08:18:30.815Z,71.19
2018-04-12T08:19:31.493Z,70.96
2018-04-12T08:20:32.171Z,70.42
2018-04-12T08:21:32.850Z,70.51
2018-04-12T08:22:33.532Z,70.67
2018-04-12T08:23:34.214Z,70.38
2018-04-12T08:24:34.889Z,71.05
2018-04-12T08:25:35.567Z,70.96
2018-04-12T08:26:36.249Z,71.25
2018-04-12T08:27:36.926Z,71.72
2018-04-12T08:28:37.603Z,71.63
2018-04-12T08:29:38.284Z,71.25
2018-04-12T08:30:38.968Z,71.53
2018-04-12T08:31:39.644Z,71.05
2018-04-12T08:32:40.339Z,71.82
2018-04-12T08:33:41.019Z,72.20
2018-04-12T08:34:41.693Z,72.20
2018-04-12T08:35:42.380Z,71.82
2018-04-12T08:36:43.053Z,72.01
2018-04-12T08:37:43.738Z,71.15
2018-04-12T08:38:44.424Z,71.19
2018-04-12T08:39:45.105Z,70.57
2018-04-12T08:40:45.781Z,70.96
2018-04-12T08:41:46.459Z,70.38
2018-04-12T08:42:47.132Z,69.90
2018-04-12T08:43:47.810Z,70.00
2018-04-12T08:44:48.488Z,69.62
2018-04-12T08:45:49.188Z,69.62
2018-04-12T08:46:49.858Z,69.93
2018-04-12T08:47:50.548Z,69.26
2018-04-12T08:48:51.223Z,69.17
2018-04-12T08:49:51.912Z,68.88
2018-04-12T08:50:52.591Z,68.69
2018-04-12T08:51:53.269Z,68.66
2018-04-12T08:52:53.948Z,68.59
2018-04-12T08:53:54.632Z,68.69
2018-04-12T08:54:55.307Z,68.88
2018-04-12T08:55:55.987Z,69.36
2018-04-12T08:56:56.666Z,68.98
2018-04-12T08:57:57.348Z,68.50
2018-04-12T08:58:58.029Z,68.30
2018-04-12T08:59:58.710Z,68.02
2018-04-12T09:00:59.395Z,67.92
2018-04-12T09:02:00.068Z,67.44
2018-04-12T09:03:00.749Z,67.44
2018-04-12T09:04:01.433Z,67.44
2018-04-12T09:05:02.115Z,67.73
2018-04-12T09:06:02.793Z,67.29
2018-04-12T09:07:03.468Z,67.16
2018-04-12T09:08:04.156Z,67.29
2018-04-12T09:09:04.835Z,66.52
2018-04-12T09:10:05.510Z,66.52
2018-04-12T09:11:06.193Z,66.71
2018-04-12T09:12:06.874Z,67.70
2018-04-12T09:13:07.562Z,67.13
2018-04-12T09:14:08.241Z,66.16
2018-04-12T09:15:08.923Z,65.40
2018-04-12T09:16:09.606Z,64.82
2018-04-12T09:17:10.286Z,64.82
2018-04-12T09:18:10.973Z,63.57
2018-04-12T09:19:11.653Z,63.38
2018-04-12T09:20:12.352Z,63.09
2018-04-12T09:21:13.012Z,63.48
2018-04-12T09:22:13.694Z,63.51
2018-04-12T09:23:14.379Z,63.79
2018-04-12T09:24:15.056Z,63.02
2018-04-12T09:25:15.732Z,63.22
2018-04-12T09:26:16.414Z,63.02
2018-04-12T09:27:17.090Z,62.93
2018-04-12T09:28:17.771Z,62.93
2018-04-12T09:29:18.453Z,63.22
2018-04-12T09:30:19.130Z,62.64
2018-04-12T09:31:19.780Z,62.93
2018-04-12T09:32:20.487Z,63.02
2018-04-12T09:33:21.222Z,61.87
2018-04-12T09:34:21.849Z,59.47
2018-04-12T09:35:22.531Z,58.70
2018-04-12T09:36:23.206Z,59.86
2018-04-12T09:37:23.883Z,59.47
2018-04-12T09:38:24.561Z,59.60
2018-04-12T09:39:25.248Z,59.12
2018-04-12T09:40:25.924Z,58.83
2018-04-12T09:41:26.609Z,58.64
2018-04-12T09:42:27.290Z,58.92
2018-04-12T09:43:27.976Z,58.25
2018-04-12T09:44:28.654Z,57.77
2018-04-12T09:45:29.341Z,56.52
2018-04-12T09:46:30.021Z,56.36
2018-04-12T09:47:30.708Z,56.36
2018-04-12T09:48:31.387Z,55.49
2018-04-12T09:49:32.089Z,55.23
2018-04-12T09:50:32.760Z,55.13
2018-04-12T09:51:33.440Z,55.33
2018-04-12T09:52:34.116Z,55.52
2018-04-12T09:53:34.797Z,54.46
2018-04-12T09:54:35.478Z,53.43
2018-04-12T09:55:36.154Z,53.81
2018-04-12T09:56:36.831Z,53.72
2018-04-12T09:57:37.513Z,53.81
2018-04-12T09:58:38.194Z,52.97
2018-04-12T09:59:38.883Z,52.78
2018-04-12T10:00:39.560Z,52.59
2018-04-12T10:01:40.239Z,52.97
2018-04-12T10:02:40.918Z,52.87
2018-04-12T10:03:41.615Z,54.03
2018-04-12T10:04:42.293Z,53.77
2018-04-12T10:05:42.973Z,54.74
2018-04-12T10:06:43.668Z,53.87
2018-04-12T10:07:44.360Z,52.91
2018-04-12T10:08:45.044Z,53.29
2018-04-12T10:09:45.720Z,52.61
2018-04-12T10:10:46.397Z,52.71
2018-04-12T10:11:47.078Z,52.81
2018-04-12T10:12:47.756Z,52.71
2018-04-12T10:13:48.441Z,52.81
2018-04-12T10:14:49.118Z,52.64
2018-04-12T10:15:49.796Z,52.93
2018-04-12T10:16:50.479Z,52.45
2018-04-12T10:17:51.157Z,52.45
2018-04-12T10:18:51.839Z,52.95
2018-04-12T10:19:52.519Z,52.45
2018-04-12T10:20:53.199Z,52.83
2018-04-12T10:21:53.886Z,52.93
2018-04-12T10:22:54.567Z,52.73
2018-04-12T10:23:55.251Z,52.55
2018-04-12T10:24:55.929Z,52.06
2018-04-12T10:25:56.605Z,52.35
2018-04-12T10:26:57.287Z,52.76
2018-04-12T10:27:57.974Z,51.92
2018-04-12T10:28:58.653Z,51.73
2018-04-12T10:29:59.333Z,51.05
2018-04-12T10:31:00.017Z,50.96
2018-04-12T10:32:00.701Z,51.34
2018-04-12T10:33:01.380Z,52.11
2018-04-12T10:34:02.059Z,51.99
2018-04-12T10:35:02.739Z,52.67
2018-04-12T10:36:03.420Z,53.17
2018-04-12T10:37:04.108Z,52.98
2018-04-12T10:38:04.787Z,52.79
2018-04-12T10:39:05.470Z,53.01
2018-04-12T10:40:06.154Z,54.17
2018-04-12T10:41:06.836Z,52.21
2018-04-12T10:42:07.519Z,51.92
2018-04-12T10:43:08.198Z,52.98
2018-04-12T10:44:08.884Z,53.01
2018-04-12T10:45:09.565Z,52.45
2018-04-12T10:46:10.255Z,51.46
2018-04-12T10:47:10.936Z,50.89
2018-04-12T10:48:11.616Z,50.33
2018-04-12T10:49:12.301Z,49.46
2018-04-12T10:50:12.982Z,49.77
2018-04-12T10:51:13.664Z,49.77
2018-04-12T10:52:14.348Z,49.68
2018-04-12T10:53:15.032Z,51.44
2018-04-12T10:54:15.720Z,50.38
2018-04-12T10:55:16.402Z,49.68
2018-04-12T10:56:17.083Z,51.51
2018-04-12T10:57:17.764Z,50.35
2018-04-12T10:58:18.447Z,49.90
2018-04-12T10:59:19.132Z,49.44
2018-04-12T11:00:19.810Z,50.50
2018-04-12T11:01:20.495Z,50.31
2018-04-12T11:02:21.178Z,48.93
2018-04-12T11:03:21.867Z,48.08
2018-04-12T11:04:22.541Z,46.32
2018-04-12T11:05:23.222Z,46.78
2018-04-12T11:06:23.903Z,47.65
2018-04-12T11:07:24.602Z,47.07
2018-04-12T11:08:25.283Z,46.32
2018-04-12T11:09:25.962Z,46.12
2018-04-12T11:10:26.650Z,45.95
2018-04-12T11:11:27.336Z,45.86
2018-04-12T11:12:28.019Z,45.95
2018-04-12T11:13:28.709Z,46.83
2018-04-12T11:14:29.389Z,45.95
2018-04-12T11:16:45.626Z,46.49
2018-04-12T11:17:46.313Z,46.58
2018-04-12T11:18:47.000Z,47.07
2018-04-12T11:19:47.681Z,47.38
2018-04-12T11:20:48.366Z,47.96
2018-04-12T11:21:49.047Z,49.44
2018-04-12T11:22:49.736Z,48.18
2018-04-12T11:23:50.420Z,46.83
2018-04-12T11:24:51.125Z,47.11
2018-04-12T11:25:51.815Z,45.95
2018-04-12T11:26:52.472Z,46.51
2018-04-12T11:27:53.173Z,46.22
2018-04-12T11:28:53.856Z,45.54
2018-04-12T11:29:54.537Z,45.83
2018-04-12T11:30:55.219Z,46.05
2018-04-12T11:31:55.903Z,45.40
2018-04-12T11:32:56.639Z,44.84
2018-04-12T11:33:57.276Z,44.54
2018-04-12T11:34:57.958Z,43.45
2018-04-12T11:35:58.649Z,41.39
2018-04-12T11:36:59.353Z,38.38
2018-04-12T11:38:00.022Z,35.92
2018-04-12T11:39:00.715Z,33.70
2018-04-12T11:40:01.400Z,32.56
2018-04-12T11:41:02.089Z,32.19
2018-04-12T11:42:02.775Z,31.16
2018-04-12T11:43:03.463Z,30.40
2018-04-12T11:44:04.154Z,29.33
2018-04-12T11:45:04.835Z,29.79
2018-04-12T11:46:05.526Z,31.59
2018-04-12T11:47:06.216Z,31.45
2018-04-12T11:48:06.903Z,33.09
2018-04-12T11:49:07.599Z,33.11
2018-04-12T11:50:08.272Z,32.92
2018-04-12T11:51:08.967Z,32.13
2018-04-12T11:52:09.666Z,31.80
2018-04-12T11:53:10.354Z,31.39
2018-04-12T11:54:11.038Z,31.87
2018-04-12T11:55:11.725Z,31.39
2018-04-12T11:56:12.409Z,31.77
2018-04-12T11:57:13.094Z,31.65
2018-04-12T11:58:13.754Z,32.50
2018-04-12T11:59:14.442Z,33.44
2018-04-12T12:00:15.137Z,34.58
2018-04-12T12:01:15.819Z,35.49
2018-04-12T12:02:16.554Z,37.30
2018-04-12T12:03:17.202Z,38.37
2018-04-12T12:04:17.887Z,38.56
2018-04-12T12:05:18.573Z,38.96
2018-04-12T12:06:19.259Z,38.19
2018-04-12T12:07:19.945Z,37.70
2018-04-12T12:08:20.630Z,37.72
2018-04-12T12:09:21.324Z,37.27
2018-04-12T12:10:22.014Z,35.83
2018-04-12T12:11:22.711Z,35.28
2018-04-12T12:12:23.437Z,33.87
2018-04-12T12:13:24.087Z,31.90
2018-04-12T12:14:24.776Z,31.06
2018-04-12T12:15:25.461Z,29.45
2018-04-12T12:16:26.148Z,28.55
2018-04-12T12:17:26.844Z,27.45
2018-04-12T12:18:27.531Z,26.03
2018-04-12T12:19:28.225Z,25.29
2018-04-12T12:20:28.913Z,24.77
2018-04-12T12:21:29.616Z,23.21
2018-04-12T12:22:30.308Z,23.18
2018-04-12T12:23:31.000Z,22.52
2018-04-12T12:24:31.693Z,21.94
2018-04-12T12:25:32.388Z,22.44
2018-04-12T12:26:33.072Z,22.11
2018-04-12T12:27:33.769Z,23.13
2018-04-12T12:28:34.474Z,23.52
2018-04-12T12:29:35.158Z,23.70
2018-04-12T12:30:35.843Z,24.28
2018-04-12T12:31:36.540Z,24.41
2018-04-12T12:32:37.228Z,25.09
2018-04-12T12:33:37.919Z,26.25
2018-04-12T12:34:38.611Z,26.92
2018-04-12T12:35:39.305Z,26.84
2018-04-12T12:36:39.996Z,27.51
2018-04-12T12:37:40.687Z,26.77
2018-04-12T12:38:41.381Z,26.29
2018-04-12T12:39:42.071Z,25.60
2018-04-12T12:40:42.757Z,25.93
2018-04-12T12:41:43.449Z,26.78
2018-04-12T12:42:44.131Z,26.95
2018-04-12T12:43:44.833Z,28.96
2018-04-12T12:44:45.513Z,30.16
2018-04-12T12:45:46.203Z,31.52
2018-04-12T12:46:46.894Z,31.25
2018-04-12T12:47:47.589Z,31.05
2018-04-12T12:48:48.273Z,30.77
2018-04-12T12:49:48.960Z,30.97
2018-04-12T12:50:49.647Z,31.04
2018-04-12T12:51:50.336Z,31.92
2018-04-12T12:52:51.023Z,32.62
2018-04-12T12:53:51.717Z,32.04
2018-04-12T12:54:52.404Z,31.77
2018-04-12T12:55:53.101Z,31.41
2018-04-12T12:56:53.789Z,29.46
2018-04-12T12:57:54.479Z,29.41
2018-04-12T12:58:55.168Z,28.25
2018-04-12T12:59:55.855Z,28.33
2018-04-12T13:00:56.542Z,28.41
2018-04-12T13:01:57.231Z,28.23
2018-04-12T13:02:57.915Z,27.92